Time;durP1;ratioP1;P1;durP2;ratioP2;P2;SDS_P1;SDS_P2;PMS_P1;PMS_P2;Temp;Humidity;BMP_temperature;BMP_pressure;BME280_temperature;BME280_humidity;BME280_pressure;Samples;Min_cycle;Max_cycle;Signal;HPM_P1;HPM_P2
2023/07/04 00:01:48;;;;;;;8.18;7.57;;;;;;;20.77;nan;95004.13;5069543;28;20194;-68
2023/07/04 00:04:16;;;;;;;8.07;7.38;;;;;;;20.74;nan;95012.09;5069843;28;20205;-68
2023/07/04 00:06:43;;;;;;;6.53;6.10;;;;;;;20.74;nan;95003.53;5069603;28;20209;-68
2023/07/04 00:09:10;;;;;;;6.90;6.18;;;;;;;20.66;nan;95006.66;5070136;28;20336;-68
2023/07/04 00:11:37;;;;;;;7.32;6.63;;;;;;;20.64;nan;95011.13;5068888;28;20234;-68
2023/07/04 00:14:04;;;;;;;6.75;6.25;;;;;;;20.59;nan;95005.47;5070314;28;20275;-69
2023/07/04 00:16:31;;;;;;;6.30;5.80;;;;;;;20.54;nan;95017.91;5069763;28;20198;-68
2023/07/04 00:19:04;;;;;;;5.97;5.28;;;;;;;20.49;nan;95020.00;5069753;28;20209;-68
2023/07/04 00:21:31;;;;;;;6.47;6.00;;;;;;;20.49;nan;95012.25;5068945;28;20198;-68
2023/07/04 00:23:58;;;;;;;7.10;6.30;;;;;;;20.44;nan;95009.19;5069775;28;20749;-68
2023/07/04 00:26:26;;;;;;;7.80;7.05;;;;;;;20.42;nan;95005.88;5068927;28;20198;-69
2023/07/04 00:28:53;;;;;;;8.93;7.25;;;;;;;20.38;nan;95015.59;5069501;28;20232;-68
2023/07/04 00:31:23;;;;;;;9.20;7.35;;;;;;;20.36;nan;95010.53;5069573;28;20212;-69
2023/07/04 00:33:50;;;;;;;10.10;8.93;;;;;;;20.28;nan;95007.69;5069265;28;20202;-69
2023/07/04 00:36:19;;;;;;;7.85;7.20;;;;;;;20.16;nan;95003.41;5069143;28;20234;-68
2023/07/04 00:38:49;;;;;;;8.93;6.20;;;;;;;20.17;nan;95010.22;5067139;28;20749;-69
2023/07/04 00:41:20;;;;;;;8.23;6.10;;;;;;;20.10;nan;95008.16;5069166;28;20277;-68
2023/07/04 00:43:57;;;;;;;5.97;5.35;;;;;;;20.01;nan;95005.34;5071148;28;20208;-68
2023/07/04 00:46:37;;;;;;;7.45;6.75;;;;;;;19.98;nan;95004.72;5072708;28;20608;-69
2023/07/04 00:49:07;;;;;;;8.27;7.30;;;;;;;19.91;nan;94999.19;5072772;28;20198;-68
2023/07/04 00:51:36;;;;;;;7.65;7.03;;;;;;;19.94;nan;95004.13;5072827;28;20218;-68
2023/07/04 00:54:04;;;;;;;8.80;7.55;;;;;;;19.88;nan;94996.81;5072581;28;20260;-68
2023/07/04 00:56:30;;;;;;;8.13;7.32;;;;;;;19.89;nan;94995.06;5072604;28;20194;-68
2023/07/04 00:58:59;;;;;;;10.45;8.85;;;;;;;19.97;nan;95003.09;5072480;28;20234;-68
2023/07/04 01:01:26;;;;;;;11.65;8.40;;;;;;;19.93;nan;94999.06;5072520;28;20206;-68
2023/07/04 01:03:53;;;;;;;9.60;8.60;;;;;;;19.90;nan;95009.59;5072909;28;20202;-68
2023/07/04 01:06:39;;;;;;;10.57;9.48;;;;;;;19.86;nan;95015.91;5072203;28;20586;-68
2023/07/04 01:09:08;;;;;;;14.90;11.45;;;;;;;19.89;nan;95005.38;5070660;28;20233;-68
2023/07/04 01:11:42;;;;;;;11.98;10.73;;;;;;;19.89;nan;95007.94;5070643;28;20614;-68
2023/07/04 01:14:20;;;;;;;12.32;9.43;;;;;;;19.91;nan;95008.66;5072595;28;20198;-69
2023/07/04 01:16:47;;;;;;;10.40;8.07;;;;;;;19.94;nan;95011.03;5070953;28;20236;-68
2023/07/04 01:19:21;;;;;;;26.85;16.73;;;;;;;19.78;nan;95003.56;5072952;28;20245;-68
2023/07/04 01:21:55;;;;;;;33.42;20.65;;;;;;;19.77;nan;95007.06;5066494;28;20199;-68
2023/07/04 01:24:36;;;;;;;34.03;22.80;;;;;;;19.70;nan;95009.25;5066249;28;20203;-68
2023/07/04 01:27:05;;;;;;;22.85;17.45;;;;;;;19.73;nan;95004.81;5072381;28;20672;-68
2023/07/04 01:29:36;;;;;;;24.35;16.98;;;;;;;19.75;nan;95002.97;5070704;28;20221;-68
2023/07/04 01:32:03;;;;;;;34.30;19.77;;;;;;;19.78;nan;95002.75;5070591;28;20206;-68
2023/07/04 01:34:32;;;;;;;32.90;21.15;;;;;;;19.75;nan;95002.97;5069372;28;20226;-68
2023/07/04 01:37:00;;;;;;;33.33;21.50;;;;;;;19.70;nan;95011.00;5070562;28;20225;-68
2023/07/04 01:39:26;;;;;;;29.15;19.77;;;;;;;19.65;nan;95003.59;5069589;28;20237;-69
2023/07/04 01:41:53;;;;;;;31.27;17.67;;;;;;;19.68;nan;95011.13;5070220;28;20691;-68
2023/07/04 01:44:24;;;;;;;36.30;19.90;;;;;;;19.72;nan;95011.72;5070017;28;20287;-68
2023/07/04 01:46:51;;;;;;;31.63;20.30;;;;;;;19.64;nan;95012.25;5071645;28;20202;-68
2023/07/04 01:49:18;;;;;;;26.17;17.90;;;;;;;19.61;nan;95011.63;5071575;28;20206;-69
2023/07/04 01:51:45;;;;;;;19.67;14.18;;;;;;;19.55;nan;95015.47;5071593;28;20854;-69
2023/07/04 01:54:16;;;;;;;14.85;11.75;;;;;;;19.54;nan;95020.75;5070644;28;20635;-68
2023/07/04 01:56:43;;;;;;;15.95;10.73;;;;;;;19.58;nan;95022.16;5071878;28;20199;-68
2023/07/04 01:59:10;;;;;;;12.63;10.57;;;;;;;19.56;nan;95013.72;5071108;28;20233;-68
2023/07/04 02:01:38;;;;;;;9.98;8.93;;;;;;;19.54;nan;95021.56;5071576;28;20202;-67
2023/07/04 02:04:05;;;;;;;10.45;7.72;;;;;;;19.55;nan;95018.03;5071166;28;20648;-68
2023/07/04 02:06:32;;;;;;;9.18;8.35;;;;;;;19.55;nan;95018.03;5071529;28;20283;-68
2023/07/04 02:08:58;;;;;;;11.50;8.40;;;;;;;19.56;nan;95013.72;5071276;28;20230;-68
2023/07/04 02:11:25;;;;;;;6.72;6.22;;;;;;;19.54;nan;95023.34;5070842;28;20262;-68
2023/07/04 02:13:52;;;;;;;9.60;8.00;;;;;;;19.45;nan;95027.31;5071502;28;20202;-68
2023/07/04 02:16:18;;;;;;;8.00;7.25;;;;;;;19.43;nan;95024.03;5071046;28;20226;-68
2023/07/04 02:18:46;;;;;;;7.68;6.70;;;;;;;19.46;nan;95023.81;5071356;28;20210;-68
2023/07/04 02:21:13;;;;;;;7.35;5.82;;;;;;;19.49;nan;95026.19;5071165;28;20676;-68
2023/07/04 02:23:40;;;;;;;9.70;7.15;;;;;;;19.57;nan;95018.75;5059057;28;20234;-68
2023/07/04 02:26:06;;;;;;;6.93;6.25;;;;;;;19.52;nan;95014.88;5070908;28;20291;-68
2023/07/04 02:28:35;;;;;;;8.02;7.22;;;;;;;19.46;nan;95023.81;5071369;28;20226;-68
2023/07/04 02:31:02;;;;;;;7.25;6.50;;;;;;;19.35;nan;95026.28;5070734;28;20285;-68
2023/07/04 02:33:29;;;;;;;6.82;6.38;;;;;;;19.27;nan;95023.44;5071302;28;20226;-69
2023/07/04 02:35:57;;;;;;;6.95;6.03;;;;;;;19.27;nan;95013.13;5070057;28;20731;-68
2023/07/04 02:38:23;;;;;;;7.03;6.32;;;;;;;19.33;nan;95012.69;5070874;28;20202;-69
2023/07/04 02:40:51;;;;;;;6.47;5.85;;;;;;;19.35;nan;95021.16;5070233;28;20199;-68
2023/07/04 02:43:18;;;;;;;6.43;5.88;;;;;;;19.32;nan;95016.19;5070992;28;20202;-68
2023/07/04 02:45:45;;;;;;;5.70;5.18;;;;;;;19.33;nan;95013.50;5069753;28;20225;-68
2023/07/04 02:48:12;;;;;;;6.95;6.00;;;;;;;19.34;nan;95014.34;5071029;28;20202;-68
2023/07/04 02:50:39;;;;;;;10.82;6.38;;;;;;;19.34;nan;95014.34;5070489;28;20218;-68
2023/07/04 02:53:07;;;;;;;6.57;6.18;;;;;;;19.35;nan;95011.66;5070777;28;20198;-68
2023/07/04 02:55:35;;;;;;;6.90;6.30;;;;;;;19.36;nan;95007.34;5069850;28;20261;-68
2023/07/04 02:58:01;;;;;;;8.07;6.70;;;;;;;19.38;nan;95016.59;5070563;28;20206;-68
2023/07/04 03:00:28;;;;;;;6.63;6.13;;;;;;;19.38;nan;95006.31;5069801;28;20753;-69
2023/07/04 03:02:55;;;;;;;6.93;6.05;;;;;;;19.45;nan;95016.19;5071124;28;20635;-70
2023/07/04 03:05:23;;;;;;;7.35;6.65;;;;;;;19.43;nan;95018.88;5070072;28;20252;-67
2023/07/04 03:07:49;;;;;;;6.88;5.95;;;;;;;19.45;nan;95011.88;5070119;28;20657;-68
2023/07/04 03:10:18;;;;;;;8.90;5.95;;;;;;;19.37;nan;95016.72;5069876;28;20712;-67
2023/07/04 03:12:44;;;;;;;6.68;6.07;;;;;;;19.31;nan;95014.53;5069609;28;20668;-69
2023/07/04 03:15:11;;;;;;;5.72;5.22;;;;;;;19.32;nan;95022.16;5070299;28;20692;-67
2023/07/04 03:17:38;;;;;;;5.65;5.18;;;;;;;19.35;nan;95023.72;5069502;28;20559;-70
2023/07/04 03:20:09;;;;;;;6.05;5.50;;;;;;;19.34;nan;95019.50;5070296;28;20255;-70
2023/07/04 03:22:36;;;;;;;5.60;5.22;;;;;;;19.42;nan;95021.56;5070929;28;20201;-69
2023/07/04 03:25:03;;;;;;;6.13;5.53;;;;;;;19.50;nan;95020.13;5070450;28;20218;-71
2023/07/04 03:27:31;;;;;;;5.13;4.82;;;;;;;19.57;nan;95021.34;5069943;28;20206;-68
2023/07/04 03:29:58;;;;;;;8.60;5.60;;;;;;;19.53;nan;95012.19;5070166;28;20237;-69
2023/07/04 03:32:25;;;;;;;6.60;5.88;;;;;;;19.52;nan;95015.72;5068823;28;20565;-68
2023/07/04 03:34:51;;;;;;;6.75;5.45;;;;;;;19.92;nan;95012.91;5067909;28;20259;-69
2023/07/04 03:37:18;;;;;;;5.65;5.22;;;;;;;21.49;nan;95016.78;5068266;28;20194;-68
2023/07/04 03:39:45;;;;;;;4.90;4.50;;;;;;;23.73;nan;95020.03;5067671;28;20284;-71
2023/07/04 03:42:11;;;;;;;5.15;4.75;;;;;;;25.91;nan;95011.47;5068033;28;20234;-69
2023/07/04 03:44:39;;;;;;;5.53;5.03;;;;;;;27.74;nan;95014.25;5068840;28;20263;-68
2023/07/04 03:47:06;;;;;;;7.63;4.35;;;;;;;29.26;nan;95010.38;5068364;28;20198;-68
2023/07/04 03:49:33;;;;;;;9.20;5.10;;;;;;;30.28;nan;95020.88;5069589;28;20232;-69
2023/07/04 03:52:00;;;;;;;8.68;5.38;;;;;;;31.03;nan;95022.81;5069927;28;20226;-68
2023/07/04 03:54:27;;;;;;;9.70;5.05;;;;;;;31.02;nan;95029.03;5070222;28;20260;-69
2023/07/04 03:56:53;;;;;;;6.13;4.50;;;;;;;30.31;nan;95031.00;5069091;28;20233;-69
2023/07/04 03:59:20;;;;;;;6.40;5.47;;;;;;;29.58;nan;95023.44;5070284;28;20198;-70
2023/07/04 04:01:48;;;;;;;8.10;5.35;;;;;;;28.50;nan;95027.22;5069531;28;20240;-69
2023/07/04 04:04:15;;;;;;;7.88;4.90;;;;;;;27.52;nan;95040.88;5058467;28;20593;-69
2023/07/04 04:06:41;;;;;;;6.35;5.20;;;;;;;26.62;nan;95036.81;5069210;28;20199;-68
2023/07/04 04:09:08;;;;;;;8.88;5.22;;;;;;;26.00;nan;95035.81;5070192;28;20280;-69
2023/07/04 04:11:35;;;;;;;13.05;5.75;;;;;;;25.62;nan;95039.41;5068955;28;20307;-70
2023/07/04 04:14:01;;;;;;;6.15;5.30;;;;;;;25.33;nan;95037.72;5069854;28;20209;-68
2023/07/04 04:16:28;;;;;;;5.75;5.25;;;;;;;25.19;nan;95045.16;5069611;28;20262;-68
2023/07/04 04:18:56;;;;;;;7.90;5.63;;;;;;;24.98;nan;95045.34;5072143;28;20205;-68
2023/07/04 04:21:23;;;;;;;6.30;5.22;;;;;;;24.90;nan;95046.00;5073582;28;20198;-68
2023/07/04 04:23:51;;;;;;;18.92;14.82;;;;;;;24.98;nan;95050.53;5074076;28;20234;-68
2023/07/04 04:26:18;;;;;;;37.92;27.27;;;;;;;25.13;nan;95045.72;5073165;28;20646;-69
2023/07/04 04:28:44;;;;;;;18.30;14.38;;;;;;;25.52;nan;95046.41;5073463;28;20198;-68
2023/07/04 04:31:11;;;;;;;8.45;7.75;;;;;;;25.74;nan;95053.88;5073098;28;20232;-68
2023/07/04 04:33:38;;;;;;;6.50;5.90;;;;;;;26.04;nan;95050.19;5073490;28;20209;-68
2023/07/04 04:36:07;;;;;;;14.60;10.93;;;;;;;26.45;nan;95053.25;5073238;28;20222;-68
2023/07/04 04:38:36;;;;;;;27.35;21.52;;;;;;;27.05;nan;95054.28;5072878;28;20747;-67
2023/07/04 04:41:04;;;;;;;24.58;18.90;;;;;;;27.80;nan;95057.22;5073035;28;20202;-71
2023/07/04 04:43:32;;;;;;;7.47;6.75;;;;;;;28.52;nan;95058.44;5073172;28;20751;-68
2023/07/04 04:45:59;;;;;;;19.60;13.63;;;;;;;29.29;nan;95050.16;5072836;28;20194;-69
2023/07/04 04:48:29;;;;;;;11.50;7.05;;;;;;;29.56;nan;95050.78;5072753;28;20267;-69
2023/07/04 04:50:57;;;;;;;12.07;10.98;;;;;;;29.97;nan;95048.81;5071974;28;20206;-69
2023/07/04 04:53:25;;;;;;;12.82;6.60;;;;;;;30.52;nan;95047.91;5073317;28;20237;-70
2023/07/04 04:55:52;;;;;;;6.75;6.15;;;;;;;30.64;nan;95047.38;5072632;28;20230;-70
2023/07/04 04:58:20;;;;;;;7.40;5.90;;;;;;;30.56;nan;95057.09;5072653;28;20226;-71
2023/07/04 05:00:46;;;;;;;10.23;7.07;;;;;;;30.53;nan;95054.81;5072169;28;20230;-71
2023/07/04 05:03:14;;;;;;;19.92;17.67;;;;;;;30.56;nan;95054.50;5071746;28;20238;-70
2023/07/04 05:05:41;;;;;;;19.27;17.27;;;;;;;30.70;nan;95061.59;5072512;28;20297;-70
2023/07/04 05:08:07;;;;;;;13.52;9.70;;;;;;;30.81;nan;95058.56;5073122;28;20210;-71
2023/07/04 05:10:35;;;;;;;7.70;6.97;;;;;;;31.01;nan;95057.09;5068431;28;20230;-71
2023/07/04 05:13:02;;;;;;;7.47;6.78;;;;;;;31.15;nan;95055.56;5071617;28;20202;-72
2023/07/04 05:15:29;;;;;;;8.63;6.72;;;;;;;31.18;nan;95059.63;5072519;28;20198;-70
2023/07/04 05:17:55;;;;;;;7.35;5.82;;;;;;;31.23;nan;95062.53;5071290;28;20226;-71
2023/07/04 05:20:24;;;;;;;7.82;6.30;;;;;;;31.00;nan;95052.84;5072388;28;20234;-71
2023/07/04 05:22:54;;;;;;;7.93;7.13;;;;;;;30.63;nan;95050.19;5072658;28;20206;-70
2023/07/04 05:25:20;;;;;;;8.90;7.05;;;;;;;30.09;nan;95055.38;5072684;28;20198;-68
2023/07/04 05:27:49;;;;;;;13.52;7.57;;;;;;;29.54;nan;95050.94;5071843;28;20267;-71
2023/07/04 05:30:15;;;;;;;6.90;6.20;;;;;;;29.18;nan;95044.44;5069471;28;20203;-69
2023/07/04 05:32:42;;;;;;;12.05;6.90;;;;;;;28.94;nan;95043.50;5070274;28;20206;-68
2023/07/04 05:35:09;;;;;;;12.35;6.18;;;;;;;28.33;nan;95049.91;5070646;28;20206;-69
2023/07/04 05:37:36;;;;;;;6.85;6.35;;;;;;;27.91;nan;95043.88;5070563;28;20253;-69
2023/07/04 05:40:02;;;;;;;8.85;6.72;;;;;;;27.75;nan;95049.84;5070663;28;20202;-69
2023/07/04 05:42:29;;;;;;;11.00;7.05;;;;;;;27.56;nan;95053.47;5070761;28;20608;-68
2023/07/04 05:44:57;;;;;;;6.68;6.28;;;;;;;27.74;nan;95051.63;5072385;28;20640;-68
2023/07/04 05:47:24;;;;;;;13.65;7.60;;;;;;;28.09;nan;95053.25;5071718;28;20199;-68
2023/07/04 05:49:51;;;;;;;8.05;6.85;;;;;;;28.28;nan;95049.56;5071698;28;20264;-69
2023/07/04 05:52:17;;;;;;;13.30;10.07;;;;;;;28.60;nan;95054.06;5071362;28;20978;-68
2023/07/04 05:54:48;;;;;;;8.43;7.63;;;;;;;30.10;nan;95049.97;5071786;28;20713;-69
2023/07/04 05:57:15;;;;;;;6.57;5.97;;;;;;;32.07;nan;95050.81;5070978;28;20279;-70
2023/07/04 05:59:41;;;;;;;7.20;6.53;;;;;;;33.04;nan;95052.09;5071715;28;20276;-68
2023/07/04 06:02:10;;;;;;;7.47;6.40;;;;;;;34.13;nan;95049.81;5071528;28;20260;-67
2023/07/04 06:04:36;;;;;;;7.63;6.97;;;;;;;34.92;nan;95044.78;5071516;28;20770;-68
2023/07/04 06:07:04;;;;;;;6.45;5.95;;;;;;;34.82;nan;95031.19;5071398;28;20655;-68
2023/07/04 06:09:30;;;;;;;9.85;7.38;;;;;;;34.22;nan;95038.06;5071331;28;20754;-71
2023/07/04 06:11:57;;;;;;;9.77;7.00;;;;;;;33.78;nan;95041.94;5071472;28;20199;-69
2023/07/04 06:14:26;;;;;;;13.95;7.28;;;;;;;34.42;nan;95038.97;5071541;28;20264;-69
2023/07/04 06:16:55;;;;;;;12.48;7.57;;;;;;;35.02;nan;95039.94;5070762;28;20638;-68
2023/07/04 06:19:23;;;;;;;10.50;6.50;;;;;;;35.58;nan;95042.16;5071619;28;20202;-71
2023/07/04 06:21:50;;;;;;;10.00;6.38;;;;;;;37.03;nan;95038.13;5070530;28;20206;-69
2023/07/04 06:24:18;;;;;;;13.68;6.35;;;;;;;39.48;nan;95041.38;5071790;28;20202;-69
2023/07/04 06:26:45;;;;;;;5.95;5.47;;;;;;;42.18;nan;95035.38;5071156;28;20195;-68
2023/07/04 06:29:11;;;;;;;10.18;9.38;;;;;;;44.83;nan;95036.28;5070897;28;20263;-70
2023/07/04 06:31:41;;;;;;;6.65;6.13;;;;;;;47.18;nan;95035.41;5071104;28;20647;-68
2023/07/04 06:34:08;;;;;;;7.03;5.40;;;;;;;48.86;nan;95042.50;5070724;28;20202;-70
2023/07/04 06:36:36;;;;;;;6.10;5.47;;;;;;;49.69;nan;95036.31;5070709;28;20306;-68
2023/07/04 06:39:03;;;;;;;8.35;7.55;;;;;;;50.71;nan;95026.19;5070609;28;20205;-69
2023/07/04 06:41:30;;;;;;;5.63;5.32;;;;;;;51.17;nan;95023.22;5070572;28;20754;-69
2023/07/04 06:43:56;;;;;;;12.57;8.73;;;;;;;;;;5070942;28;20285;-70
2023/07/04 06:46:23;;;;;;;9.00;6.72;;;;;;;51.72;nan;95022.97;5070400;28;20234;-67
2023/07/04 06:48:51;;;;;;;8.07;6.68;;;;;;;52.29;nan;95031.97;5070433;28;20198;-69
2023/07/04 06:51:19;;;;;;;6.22;5.55;;;;;;;52.61;nan;95021.81;5070760;28;20252;-67
2023/07/04 06:53:48;;;;;;;12.32;7.80;;;;;;;52.35;nan;95030.69;5070384;28;20244;-70
2023/07/04 06:56:17;;;;;;;8.90;6.55;;;;;;;52.55;nan;95028.50;5070578;28;20264;-66
2023/07/04 06:58:47;;;;;;;7.38;4.93;;;;;;;53.35;nan;95032.53;5070336;28;20209;-70
2023/07/04 07:01:14;;;;;;;25.48;15.18;;;;;;;52.72;nan;95025.03;5070403;28;20651;-68
2023/07/04 07:03:41;;;;;;;5.18;4.75;;;;;;;52.19;nan;95020.59;5070736;28;20233;-70
2023/07/04 07:06:09;;;;;;;10.82;7.70;;;;;;;52.42;nan;95022.09;5070103;28;20716;-69
2023/07/04 07:08:37;;;;;;;13.88;11.68;;;;;;;52.93;nan;95024.09;5069893;28;20210;-69
2023/07/04 07:11:07;;;;;;;9.82;7.35;;;;;;;53.08;nan;95019.28;5068561;28;20230;-70
2023/07/04 07:13:33;;;;;;;7.05;6.35;;;;;;;53.05;nan;95025.34;5068639;28;20198;-70
2023/07/04 07:16:09;;;;;;;5.93;5.50;;;;;;;52.80;nan;95016.88;5070418;28;20253;-69
2023/07/04 07:18:36;;;;;;;5.95;5.25;;;;;;;53.19;nan;95020.56;5069017;28;20636;-70
2023/07/04 07:21:03;;;;;;;6.80;4.53;;;;;;;53.19;nan;95023.28;5070469;28;20229;-70
2023/07/04 07:23:32;;;;;;;5.90;4.25;;;;;;;53.62;nan;95018.59;5069903;28;20298;-69
2023/07/04 07:26:01;;;;;;;7.82;5.13;;;;;;;53.55;nan;95025.59;5070220;28;20683;-70
2023/07/04 07:28:31;;;;;;;6.10;5.35;;;;;;;53.09;nan;95020.88;5069746;28;20259;-70
2023/07/04 07:31:02;;;;;;;6.05;4.88;;;;;;;53.08;nan;95024.72;5068495;28;20259;-69
2023/07/04 07:33:31;;;;;;;4.60;4.15;;;;;;;53.40;nan;95028.84;5068546;28;20198;-69
2023/07/04 07:35:58;;;;;;;5.35;4.93;;;;;;;53.93;nan;95022.97;5067432;28;20637;-70
2023/07/04 07:38:25;;;;;;;5.53;5.05;;;;;;;54.13;nan;95016.78;5068793;28;20259;-68
2023/07/04 07:40:52;;;;;;;4.55;4.25;;;;;;;53.88;nan;95020.41;5068448;28;20202;-68
2023/07/04 07:43:18;;;;;;;5.03;4.38;;;;;;;53.36;nan;95019.75;5068442;28;20225;-67
2023/07/04 07:45:47;;;;;;;4.68;4.38;;;;;;;53.56;nan;95030.72;5068912;28;20206;-68
2023/07/04 07:48:16;;;;;;;4.82;4.53;;;;;;;53.27;nan;95022.47;5070051;28;20696;-71
2023/07/04 07:50:44;;;;;;;4.28;4.03;;;;;;;53.16;nan;95023.91;5069168;28;20198;-68
2023/07/04 07:53:13;;;;;;;4.28;4.07;;;;;;;53.44;nan;95017.03;5072007;28;20198;-70
2023/07/04 07:55:40;;;;;;;4.88;4.35;;;;;;;53.03;nan;95028.41;5070578;28;20249;-70
2023/07/04 07:58:07;;;;;;;5.15;4.80;;;;;;;53.10;nan;95027.91;5065560;28;20221;-68
2023/07/04 08:00:33;;;;;;;4.57;4.28;;;;;;;53.00;nan;95020.88;5073528;28;20251;-67
2023/07/04 08:03:01;;;;;;;4.90;4.40;;;;;;;52.82;nan;95017.34;5074274;28;20260;-67
2023/07/04 08:05:28;;;;;;;5.70;5.30;;;;;;;52.75;nan;95011.59;5073769;28;20624;-69
2023/07/04 08:07:55;;;;;;;6.60;5.50;;;;;;;52.87;nan;95014.50;5073948;28;20679;-68
2023/07/04 08:10:22;;;;;;;6.63;6.07;;;;;;;52.46;nan;95019.56;5073047;28;20225;-70
2023/07/04 08:12:48;;;;;;;5.90;5.50;;;;;;;52.34;nan;95018.25;5073834;28;20205;-70
2023/07/04 08:15:15;;;;;;;5.63;5.22;;;;;;;52.23;nan;95016.13;5073872;28;20225;-71
2023/07/04 08:17:42;;;;;;;4.35;4.10;;;;;;;52.55;nan;95009.50;5073960;28;20253;-70
2023/07/04 08:20:12;;;;;;;5.80;5.32;;;;;;;51.97;nan;95006.03;5073363;28;20645;-69
2023/07/04 08:22:38;;;;;;;5.80;4.07;;;;;;;51.68;nan;94994.88;5073681;28;20206;-71
2023/07/04 08:25:05;;;;;;;5.13;4.72;;;;;;;52.64;nan;95013.06;5072746;28;20279;-70
2023/07/04 08:27:32;;;;;;;4.78;4.47;;;;;;;51.67;nan;95007.63;5073980;28;20270;-70
2023/07/04 08:29:59;;;;;;;5.22;4.82;;;;;;;51.72;nan;95000.47;5072205;28;20652;-69
2023/07/04 08:32:27;;;;;;;6.00;4.65;;;;;;;52.74;nan;95001.88;5073618;28;20197;-69
2023/07/04 08:34:53;;;;;;;4.70;4.38;;;;;;;51.67;nan;94996.78;5073467;28;20201;-71
2023/07/04 08:37:21;;;;;;;7.90;4.43;;;;;;;52.07;nan;94991.38;5073319;28;20221;-69
2023/07/04 08:39:49;;;;;;;5.10;4.80;;;;;;;51.92;nan;94991.78;5073012;28;20263;-70
2023/07/04 08:42:18;;;;;;;4.40;3.97;;;;;;;52.61;nan;95000.13;5073075;28;20206;-71
2023/07/04 08:44:47;;;;;;;4.28;4.05;;;;;;;52.68;nan;95000.44;5073596;28;20233;-68
2023/07/04 08:47:16;;;;;;;4.13;3.83;;;;;;;50.56;nan;94997.53;5072168;28;20570;-70
2023/07/04 08:49:49;;;;;;;4.75;4.43;;;;;;;49.13;nan;94992.41;5073251;28;20353;-70
2023/07/04 08:52:21;;;;;;;5.03;4.55;;;;;;;49.78;nan;94995.06;5072692;28;20230;-70
2023/07/04 08:54:49;;;;;;;4.97;4.53;;;;;;;50.52;nan;94990.34;5072637;28;20198;-70
2023/07/04 08:57:28;;;;;;;6.38;4.50;;;;;;;50.86;nan;94979.03;5072500;28;20249;-68
2023/07/04 09:00:00;;;;;;;5.22;4.55;;;;;;;51.18;nan;94980.72;5073093;28;20292;-66
2023/07/04 09:02:51;;;;;;;4.63;4.32;;;;;;;51.95;nan;94977.63;5072647;28;20201;-69
2023/07/04 09:05:29;;;;;;;6.05;4.72;;;;;;;52.05;nan;94979.22;5069501;28;20202;-70
2023/07/04 09:08:06;;;;;;;5.20;4.90;;;;;;;51.33;nan;94978.44;5064216;28;20194;-69
2023/07/04 09:10:40;;;;;;;7.22;5.25;;;;;;;48.24;nan;94982.38;5074243;28;20221;-69
2023/07/04 09:13:12;;;;;;;5.45;5.07;;;;;;;47.31;nan;94969.34;5076430;28;20228;-69
2023/07/04 09:15:43;;;;;;;5.80;5.40;;;;;;;47.66;nan;94974.38;5059658;28;20230;-67
2023/07/04 09:18:21;;;;;;;5.28;4.28;;;;;;;48.25;nan;94977.78;5070925;28;20250;-69
2023/07/04 09:20:54;;;;;;;4.43;4.13;;;;;;;48.90;nan;94978.75;5071117;28;20221;-70
2023/07/04 09:23:23;;;;;;;5.25;4.63;;;;;;;48.02;nan;94979.38;5071136;28;20225;-66
2023/07/04 09:25:54;;;;;;;5.80;5.38;;;;;;;47.19;nan;94966.25;5071506;28;20210;-70
2023/07/04 09:28:21;;;;;;;5.10;4.70;;;;;;;46.09;nan;94970.94;5072144;28;20283;-69
2023/07/04 09:30:47;;;;;;;5.40;4.90;;;;;;;44.60;nan;94969.72;5072072;28;20264;-69
2023/07/04 09:33:15;;;;;;;4.20;3.97;;;;;;;42.85;nan;94970.91;5072596;28;20269;-68
2023/07/04 09:35:44;;;;;;;6.90;5.45;;;;;;;41.45;nan;94969.78;5072074;28;20205;-68
2023/07/04 09:38:10;;;;;;;7.68;5.68;;;;;;;39.20;nan;94975.56;5059626;28;20226;-66
2023/07/04 09:40:43;;;;;;;5.45;5.15;;;;;;;37.74;nan;94972.25;5071869;28;20684;-69
2023/07/04 09:43:13;;;;;;;5.18;4.88;;;;;;;37.63;nan;94966.84;5072700;28;20199;-69
2023/07/04 09:45:41;;;;;;;5.05;4.65;;;;;;;37.68;nan;94969.66;5071238;28;20688;-68
2023/07/04 09:48:10;;;;;;;6.82;5.80;;;;;;;37.90;nan;94962.06;5071914;28;20769;-70
2023/07/04 09:50:37;;;;;;;5.55;5.15;;;;;;;37.30;nan;94960.06;5058935;28;20207;-69
2023/07/04 09:53:08;;;;;;;6.75;6.03;;;;;;;36.63;nan;94960.75;5072063;28;20671;-68
2023/07/04 09:55:37;;;;;;;6.55;6.05;;;;;;;35.83;nan;94957.72;5071448;28;20302;-66
2023/07/04 09:58:20;;;;;;;7.63;6.88;;;;;;;35.00;nan;94957.44;5072260;28;20253;-67
2023/07/04 10:01:01;;;;;;;7.50;6.80;;;;;;;34.41;nan;94954.75;5071327;28;20236;-66
2023/07/04 10:03:27;;;;;;;9.13;6.65;;;;;;;33.97;nan;94960.50;5084102;28;20204;-67
2023/07/04 10:05:55;;;;;;;6.47;5.88;;;;;;;33.51;nan;94955.81;5071629;28;20460;-69
2023/07/04 10:08:21;;;;;;;6.03;5.53;;;;;;;33.13;nan;94958.81;5070994;28;20699;-68
2023/07/04 10:10:52;;;;;;;5.82;5.40;;;;;;;32.57;nan;94957.94;5071469;28;20617;-67
2023/07/04 10:13:25;;;;;;;6.78;6.28;;;;;;;31.82;nan;94955.69;5071566;28;20212;-69
2023/07/04 10:15:52;;;;;;;5.78;5.38;;;;;;;;;;5071173;28;20206;-70
2023/07/04 10:18:28;;;;;;;5.65;5.25;;;;;;;31.31;nan;94955.63;5070792;28;20242;-69
2023/07/04 10:20:57;;;;;;;6.10;5.72;;;;;;;30.98;nan;94947.22;5071181;28;20237;-68
2023/07/04 10:23:26;;;;;;;6.68;5.35;;;;;;;30.82;nan;94957.88;5070927;28;20202;-68
2023/07/04 10:25:54;;;;;;;5.82;5.38;;;;;;;30.78;nan;94957.41;5071463;28;20205;-68
2023/07/04 10:28:26;;;;;;;6.90;6.43;;;;;;;30.78;nan;94953.97;5070870;28;20691;-66
2023/07/04 10:30:56;;;;;;;7.57;6.85;;;;;;;30.87;nan;94941.59;5071032;28;20203;-68
2023/07/04 10:33:28;;;;;;;8.07;7.10;;;;;;;31.00;nan;94947.84;5071410;28;20206;-65
2023/07/04 10:35:55;;;;;;;7.97;7.32;;;;;;;31.06;nan;94951.59;5070520;28;20240;-68
2023/07/04 10:38:35;;;;;;;7.10;6.45;;;;;;;31.12;nan;94940.41;5070652;28;20305;-68
2023/07/04 10:41:14;;;;;;;13.35;6.88;;;;;;;31.19;nan;94948.34;5070774;28;20286;-69
2023/07/04 10:43:45;;;;;;;7.20;6.70;;;;;;;31.10;nan;94945.81;5071085;28;20289;-69
2023/07/04 10:46:20;;;;;;;8.18;7.45;;;;;;;31.12;nan;94940.41;5070658;28;20209;-66
2023/07/04 10:48:51;;;;;;;6.93;6.47;;;;;;;31.20;nan;94931.59;5070448;28;20647;-67
2023/07/04 10:51:24;;;;;;;6.38;5.97;;;;;;;31.06;nan;94927.97;5070828;28;20218;-68
2023/07/04 10:53:50;;;;;;;6.20;5.80;;;;;;;31.22;nan;94929.63;5070302;28;20268;-68
2023/07/04 10:56:24;;;;;;;8.50;5.75;;;;;;;31.32;nan;94932.78;5070917;28;20260;-70
2023/07/04 10:58:58;;;;;;;6.45;6.05;;;;;;;31.35;nan;94920.13;5070154;28;20218;-66
2023/07/04 11:01:29;;;;;;;7.35;6.85;;;;;;;31.32;nan;94927.53;5070507;28;20707;-66
2023/07/04 11:04:04;;;;;;;12.50;6.72;;;;;;;31.31;nan;94918.03;5070133;28;20206;-66
2023/07/04 11:06:38;;;;;;;6.68;6.20;;;;;;;31.29;nan;94930.53;5070702;28;20201;-68
2023/07/04 11:09:07;;;;;;;6.70;6.20;;;;;;;31.30;nan;94921.66;5070505;28;20647;-67
2023/07/04 11:11:34;;;;;;;6.88;6.38;;;;;;;31.30;nan;94922.47;5059925;28;20235;-67
2023/07/04 11:14:07;;;;;;;7.30;6.80;;;;;;;31.26;nan;94920.38;5069946;28;20237;-68
2023/07/04 11:16:39;;;;;;;8.50;7.90;;;;;;;31.30;nan;94900.66;5069428;28;20209;-68
2023/07/04 11:19:14;;;;;;;6.95;6.22;;;;;;;31.33;nan;94910.78;5069848;28;20573;-69
2023/07/04 11:22:13;;;;;;;7.03;6.53;;;;;;;31.33;nan;94900.28;5070046;28;20571;-68
2023/07/04 11:24:44;;;;;;;7.18;6.50;;;;;;;31.48;nan;94893.19;5069901;28;20260;-66
2023/07/04 11:27:14;;;;;;;7.45;6.85;;;;;;;31.58;nan;94891.13;5069993;28;20267;-69
2023/07/04 11:29:52;;;;;;;8.27;7.50;;;;;;;31.59;nan;94897.19;5068159;28;20693;-69
2023/07/04 11:32:25;;;;;;;7.70;7.05;;;;;;;31.53;nan;94885.59;5068932;28;20208;-67
2023/07/04 11:34:53;;;;;;;11.85;7.22;;;;;;;31.43;nan;94885.88;5067873;28;20202;-66
2023/07/04 11:37:26;;;;;;;8.57;6.57;;;;;;;31.38;nan;94880.38;5068500;28;20206;-66
2023/07/04 11:39:57;;;;;;;7.60;6.90;;;;;;;31.41;nan;94877.38;5068253;28;20702;-66
2023/07/04 11:42:31;;;;;;;7.07;6.35;;;;;;;31.42;nan;94883.44;5067925;28;20289;-65
2023/07/04 11:45:03;;;;;;;6.90;6.40;;;;;;;31.25;nan;94871.50;5069592;28;20678;-66
2023/07/04 11:47:35;;;;;;;6.93;6.32;;;;;;;31.20;nan;94873.84;5069627;28;20206;-65
2023/07/04 11:50:07;;;;;;;6.47;6.07;;;;;;;31.24;nan;94873.31;5070230;28;20202;-67
2023/07/04 11:52:34;;;;;;;9.25;7.43;;;;;;;31.32;nan;94872.41;5069953;28;20363;-68
2023/07/04 11:55:07;;;;;;;7.13;6.15;;;;;;;31.46;nan;94879.44;5069898;28;20210;-68
2023/07/04 11:57:59;;;;;;;7.60;6.82;;;;;;;31.51;nan;94871.00;5069120;28;20213;-68